Time;durP1;ratioP1;P1;durP2;ratioP2;P2;SDS_P1;SDS_P2;PMS_P1;PMS_P2;Temp;Humidity;BMP_temperature;BMP_pressure;BME280_temperature;BME280_humidity;BME280_pressure;Samples;Min_cycle;Max_cycle;Signal;HPM_P1;HPM_P2
2023/08/30 00:02:09;;;;;;;30.50;27.20;;;;;;;17.16;75.05;99406.45;112259;1247;21997;-81
2023/08/30 00:06:19;;;;;;;33.70;30.20;;;;;;;17.17;75.16;99413.11;111129;1260;21982;-79
2023/08/30 00:09:56;;;;;;;28.20;25.40;;;;;;;17.20;75.12;99409.71;111338;1256;22038;-83
2023/08/30 00:13:35;;;;;;;29.90;26.80;;;;;;;17.23;75.21;99404.38;110309;1267;21978;-81
2023/08/30 00:16:57;;;;;;;;;;;;;;;;;;;;;
2023/08/30 00:20:02;;;;;;;29.70;26.70;;;;;;;17.29;74.83;99412.31;109665;1272;21998;-81
2023/08/30 00:22:57;;;;;;;28.30;25.60;;;;;;;17.30;74.82;99420.47;109741;1272;22183;-80
2023/08/30 00:25:39;;;;;;;28.00;25.00;;;;;;;17.33;74.73;99427.13;109721;1272;24336;-81
2023/08/30 00:28:14;;;;;;;28.70;25.90;;;;;;;17.37;74.69;99428.20;109687;1272;22085;-81
2023/08/30 00:31:16;;;;;;;28.80;25.90;;;;;;;17.40;74.44;99427.61;109639;1272;22013;-81
2023/08/30 00:33:56;;;;;;;29.40;26.50;;;;;;;17.41;74.38;99430.17;109649;1272;22047;-83
2023/08/30 00:36:33;;;;;;;28.30;25.30;;;;;;;17.42;74.55;99430.80;109438;1274;22001;-80
2023/08/30 00:39:10;;;;;;;27.80;25.30;;;;;;;17.43;74.49;99422.61;109421;1274;22014;-79
2023/08/30 00:42:06;;;;;;;29.10;26.00;;;;;;;17.43;74.28;99417.88;110018;1263;22003;-80
2023/08/30 00:44:58;;;;;;;28.40;25.50;;;;;;;17.42;74.40;99414.61;110523;1265;21982;-80
2023/08/30 00:48:27;;;;;;;;;;;;;;;;;;;;;
2023/08/30 00:51:51;;;;;;;;;;;;;;;;;;;;;
2023/08/30 00:55:22;;;;;;;;;;;;;;;;;;;;;
2023/08/30 00:58:33;;;;;;;25.40;23.10;;;;;;;17.35;74.36;99423.95;112490;1243;21946;-81
2023/08/30 01:01:23;;;;;;;29.80;26.80;;;;;;;17.39;74.18;99420.83;111747;1249;23728;-82
2023/08/30 01:07:34;;;;;;;26.70;23.60;;;;;;;17.37;74.03;99408.65;111998;1250;21957;-81
2023/08/30 01:10:55;;;;;;;25.60;23.10;;;;;;;17.30;74.17;99385.01;111968;1250;21963;-81
2023/08/30 01:14:07;;;;;;;25.10;22.60;;;;;;;17.39;74.12;99395.88;111943;1248;21952;-80
2023/08/30 01:16:49;;;;;;;23.60;21.30;;;;;;;17.39;74.04;99393.23;111517;1253;21986;-81
2023/08/30 01:19:58;;;;;;;22.90;20.70;;;;;;;17.40;74.07;99392.07;111592;1253;22054;-82
2023/08/30 01:24:17;;;;;;;24.20;21.30;;;;;;;17.37;74.06;99387.73;111671;1249;22993;-81
2023/08/30 01:27:18;;;;;;;22.50;20.10;;;;;;;17.32;74.05;99381.00;111045;1261;22024;-81
2023/08/30 01:30:34;;;;;;;23.90;21.50;;;;;;;17.32;73.98;99377.97;111072;1261;24178;-80
2023/08/30 01:33:31;;;;;;;23.30;21.10;;;;;;;17.30;74.04;99374.61;110952;1257;23094;-82
2023/08/30 01:36:16;;;;;;;24.00;21.60;;;;;;;17.30;73.94;99375.29;111085;1256;23143;-80
2023/08/30 01:38:46;;;;;;;22.40;20.30;;;;;;;17.32;74.05;99388.36;111595;1251;21914;-80
2023/08/30 01:41:15;;;;;;;23.60;21.20;;;;;;;17.34;74.07;99393.82;111531;1252;21964;-80
2023/08/30 01:43:43;;;;;;;23.30;20.90;;;;;;;17.34;73.91;99391.69;111646;1248;23033;-80
2023/08/30 01:46:11;;;;;;;24.90;22.40;;;;;;;17.34;74.08;99386.55;111594;1243;21966;-80
2023/08/30 01:48:39;;;;;;;27.40;24.80;;;;;;;17.34;74.05;99382.04;111613;1252;22038;-80
2023/08/30 01:51:08;;;;;;;28.00;25.30;;;;;;;17.34;74.16;99390.08;111900;1249;21946;-80
2023/08/30 01:53:36;;;;;;;24.20;22.00;;;;;;;17.36;74.22;99393.86;111979;1249;22716;-80
2023/08/30 01:56:04;;;;;;;22.60;20.40;;;;;;;17.36;74.06;99395.08;111753;1243;21991;-79
2023/08/30 01:58:32;;;;;;;23.60;19.90;;;;;;;17.34;74.03;99393.84;112644;1243;23667;-81
2023/08/30 02:01:00;;;;;;;21.60;19.60;;;;;;;17.32;73.99;99396.05;113311;1233;21940;-80
2023/08/30 02:03:27;;;;;;;21.40;19.50;;;;;;;17.32;74.10;99389.19;113506;1233;23050;-79
2023/08/30 02:06:21;;;;;;;22.80;20.20;;;;;;;17.34;74.15;99387.17;113372;1233;21946;-79
2023/08/30 02:09:18;;;;;;;23.30;20.90;;;;;;;17.32;74.24;99381.69;113659;1233;23703;-79
2023/08/30 02:11:50;;;;;;;21.70;19.60;;;;;;;17.30;74.25;99376.56;113580;1233;21943;-80
2023/08/30 02:14:20;;;;;;;23.10;21.10;;;;;;;17.31;74.18;99370.17;113701;1233;21955;-78
2023/08/30 02:16:48;;;;;;;21.90;19.80;;;;;;;17.31;74.21;99366.11;113553;1233;21946;-80
2023/08/30 02:19:20;;;;;;;22.00;19.80;;;;;;;17.32;74.23;99365.52;113477;1233;21994;-83
2023/08/30 02:22:22;;;;;;;19.10;17.50;;;;;;;17.24;74.25;99352.98;112881;1239;21968;-79
2023/08/30 02:25:13;;;;;;;19.50;17.70;;;;;;;17.20;74.28;99346.96;112868;1239;21973;-81
2023/08/30 02:28:28;;;;;;;20.90;18.90;;;;;;;17.21;74.34;99359.18;113086;1239;21963;-79
2023/08/30 02:31:22;;;;;;;21.30;19.30;;;;;;;17.20;74.51;99361.88;113088;1239;21975;-82
2023/08/30 02:34:37;;;;;;;20.30;18.30;;;;;;;17.21;74.69;99360.27;113075;1239;21955;-80
2023/08/30 02:38:08;;;;;;;20.80;18.70;;;;;;;17.20;74.68;99361.34;113286;1239;23031;-79
2023/08/30 02:41:09;;;;;;;21.20;17.90;;;;;;;17.22;74.71;99358.73;113271;1233;23626;-79
2023/08/30 02:44:12;;;;;;;18.50;16.60;;;;;;;17.21;74.71;99355.50;113709;1233;21951;-80
2023/08/30 02:47:20;;;;;;;20.40;18.40;;;;;;;17.20;74.67;99354.68;113843;1233;21918;-80
2023/08/30 02:50:16;;;;;;;21.20;19.20;;;;;;;17.21;74.70;99352.33;112612;1244;21972;-80
2023/08/30 02:53:08;;;;;;;19.30;17.50;;;;;;;17.20;74.74;99351.88;111946;1248;23707;-83
2023/08/30 02:56:00;;;;;;;21.00;18.80;;;;;;;17.20;74.74;99354.30;111266;1249;21980;-79
2023/08/30 02:59:27;;;;;;;19.00;17.10;;;;;;;17.19;74.84;99355.66;111242;1256;22724;-79
2023/08/30 03:02:41;;;;;;;19.70;17.70;;;;;;;17.20;75.13;99354.91;110939;1260;22048;-81
2023/08/30 03:06:09;;;;;;;;;;;;;;;17.17;75.04;99355.86;109783;1271;24103;-81
2023/08/30 03:09:13;;;;;;;;;;;;;;;;;;;;;
2023/08/30 03:12:05;;;;;;;20.70;18.60;;;;;;;17.05;75.25;99357.09;110693;1265;22735;-82
2023/08/30 03:15:09;;;;;;;22.90;19.90;;;;;;;17.09;75.34;99352.61;111041;1259;21992;-81
2023/08/30 03:17:52;;;;;;;23.70;19.80;;;;;;;17.10;75.10;99349.49;111178;1259;21979;-84
2023/08/30 03:21:26;;;;;;;21.70;19.60;;;;;;;17.08;75.11;99354.23;111583;1255;22229;-80
2023/08/30 03:24:15;;;;;;;18.90;17.20;;;;;;;17.05;75.22;99352.34;112581;1243;22090;-81
2023/08/30 03:27:19;;;;;;;23.20;20.80;;;;;;;17.08;75.40;99354.04;112871;1239;21970;-79
2023/08/30 03:29:55;;;;;;;22.70;20.60;;;;;;;17.10;75.46;99356.20;113050;1233;23199;-81
2023/08/30 03:32:59;;;;;;;23.50;21.30;;;;;;;17.10;75.42;99358.30;113097;1240;21945;-80
2023/08/30 03:36:03;;;;;;;25.80;23.30;;;;;;;17.08;75.51;99359.02;113185;1240;21895;-80
2023/08/30 03:38:46;;;;;;;25.20;21.30;;;;;;;17.09;75.60;99362.05;112954;1240;21966;-80
2023/08/30 03:41:33;;;;;;;;;;;;;;;17.09;75.61;99363.16;113152;1240;21937;-80
2023/08/30 03:44:26;;;;;;;23.20;20.70;;;;;;;17.01;75.94;99363.27;113056;1240;22433;-81
2023/08/30 03:48:05;;;;;;;22.20;20.20;;;;;;;17.01;75.99;99362.39;113123;1240;22375;-80
2023/08/30 03:51:12;;;;;;;23.80;21.40;;;;;;;17.02;76.02;99352.80;113408;1233;23578;-81
2023/08/30 03:54:06;;;;;;;21.70;19.10;;;;;;;17.02;76.04;99343.14;113872;1233;22371;-82
2023/08/30 03:56:51;;;;;;;20.80;18.80;;;;;;;17.04;76.00;99341.75;113812;1233;21945;-81
2023/08/30 04:00:09;;;;;;;;;;;;;;;;;;;;;
2023/08/30 04:03:26;;;;;;;14.80;13.40;;;;;;;17.03;76.11;99343.81;113845;1233;21977;-80
2023/08/30 04:06:18;;;;;;;14.40;13.00;;;;;;;16.95;76.01;99333.14;113810;1233;21951;-80
2023/08/30 04:09:20;;;;;;;12.00;10.90;;;;;;;16.96;76.05;99337.77;113651;1233;21936;-80
2023/08/30 04:12:19;;;;;;;12.30;11.10;;;;;;;16.95;76.27;99334.35;113516;1233;21943;-82
2023/08/30 04:15:20;;;;;;;11.00;9.90;;;;;;;16.93;76.35;99331.70;113535;1233;22950;-81
2023/08/30 04:18:18;;;;;;;11.50;10.40;;;;;;;16.92;76.40;99329.20;113411;1238;21912;-82
2023/08/30 04:21:13;;;;;;;13.70;12.30;;;;;;;16.89;76.37;99323.75;113452;1237;21959;-82
2023/08/30 04:23:57;;;;;;;13.80;12.40;;;;;;;16.91;76.35;99329.23;113393;1238;24316;-82
2023/08/30 04:26:49;;;;;;;13.70;12.40;;;;;;;16.87;76.36;99323.36;110703;1238;23782;-82
2023/08/30 04:29:57;;;;;;;14.40;13.10;;;;;;;16.87;76.39;99316.34;113195;1238;21958;-83
2023/08/30 04:32:48;;;;;;;13.60;11.90;;;;;;;16.93;76.33;99324.87;112713;1243;22434;-81
2023/08/30 04:36:07;;;;;;;;;;;;;;;;;;;;;
2023/08/30 04:39:16;;;;;;;15.00;13.50;;;;;;;16.90;76.38;99328.11;111711;1252;21971;-81
2023/08/30 04:43:13;;;;;;;16.50;15.00;;;;;;;16.90;76.43;99334.96;111530;1252;22008;-82
2023/08/30 04:46:37;;;;;;;18.70;16.30;;;;;;;16.90;76.56;99348.84;111591;1252;21957;-82
2023/08/30 04:49:52;;;;;;;;;;;;;;;;;;;;;
2023/08/30 04:52:47;;;;;;;19.30;15.00;;;;;;;16.97;76.46;99357.43;111566;1246;21993;-79
2023/08/30 04:55:34;;;;;;;13.90;12.70;;;;;;;17.01;76.34;99362.20;112288;1246;23818;-80
2023/08/30 04:58:27;;;;;;;15.50;13.50;;;;;;;17.03;76.09;99354.63;111572;1251;21979;-83
2023/08/30 05:01:26;;;;;;;14.00;12.60;;;;;;;17.02;76.01;99351.40;111804;1250;21998;-79
2023/08/30 05:04:22;;;;;;;13.70;12.40;;;;;;;16.99;76.26;99353.40;111669;1250;21996;-78
2023/08/30 05:07:28;;;;;;;14.30;12.90;;;;;;;16.99;76.19;99354.08;111799;1244;21933;-78
2023/08/30 05:10:32;;;;;;;15.40;14.10;;;;;;;16.99;76.11;99352.48;111704;1250;23779;-78
2023/08/30 05:14:03;;;;;;;15.00;13.70;;;;;;;16.97;75.88;99356.35;110825;1260;22065;-80
2023/08/30 05:17:35;;;;;;;17.60;14.90;;;;;;;16.93;75.86;99364.91;111235;1256;21979;-79
2023/08/30 05:20:15;;;;;;;15.80;14.50;;;;;;;16.93;75.83;99360.33;110946;1256;22073;-78
2023/08/30 05:23:11;;;;;;;15.70;14.30;;;;;;;16.84;75.57;99347.86;111140;1259;23837;-79
2023/08/30 05:26:12;;;;;;;14.70;13.30;;;;;;;16.81;75.33;99348.15;110461;1265;23071;-80
2023/08/30 05:29:00;;;;;;;14.40;13.10;;;;;;;16.86;75.43;99356.56;110370;1265;22750;-79
2023/08/30 05:32:01;;;;;;;12.60;11.40;;;;;;;16.87;75.64;99351.21;110447;1262;23052;-78
2023/08/30 05:35:03;;;;;;;12.50;11.20;;;;;;;16.89;75.57;99346.83;110872;1254;22000;-78
2023/08/30 05:38:01;;;;;;;11.20;10.10;;;;;;;16.89;75.32;99349.30;110937;1253;21988;-78
2023/08/30 05:41:17;;;;;;;9.90;8.90;;;;;;;16.90;75.33;99355.51;111006;1257;24257;-77
2023/08/30 05:44:10;;;;;;;10.30;9.40;;;;;;;16.93;75.04;99358.55;111262;1253;23622;-78
2023/08/30 05:46:50;;;;;;;10.20;9.20;;;;;;;16.94;75.19;99356.55;111460;1253;22024;-78
2023/08/30 05:49:46;;;;;;;9.30;8.50;;;;;;;16.94;74.89;99363.42;111969;1246;21969;-77
2023/08/30 05:52:44;;;;;;;8.80;7.90;;;;;;;16.92;74.94;99367.42;112656;1241;21942;-88
2023/08/30 05:55:17;;;;;;;8.00;7.30;;;;;;;16.93;74.65;99373.19;112187;1241;21964;-80
2023/08/30 05:58:22;;;;;;;9.20;7.10;;;;;;;16.93;74.66;99371.22;112556;1236;23041;-80
2023/08/30 06:01:35;;;;;;;7.60;6.90;;;;;;;16.93;74.71;99373.52;112565;1244;21963;-79
2023/08/30 06:04:34;;;;;;;8.50;7.80;;;;;;;16.93;74.43;99379.39;112369;1244;21960;-79
2023/08/30 06:08:19;;;;;;;7.90;7.30;;;;;;;16.86;74.38;99382.54;112570;1244;22620;-79
2023/08/30 06:11:15;;;;;;;10.00;9.10;;;;;;;16.84;74.39;99379.52;112329;1244;21976;-78
2023/08/30 06:14:14;;;;;;;8.50;7.80;;;;;;;16.84;74.36;99380.73;112101;1246;22110;-79
2023/08/30 06:17:08;;;;;;;7.80;7.20;;;;;;;16.86;74.37;99379.23;112087;1246;21965;-80
2023/08/30 06:20:02;;;;;;;7.60;6.90;;;;;;;16.87;74.46;99383.52;112238;1246;21971;-79
2023/08/30 06:22:43;;;;;;;7.10;6.50;;;;;;;16.91;74.33;99386.54;112116;1246;22096;-76
2023/08/30 06:25:52;;;;;;;7.30;6.70;;;;;;;16.89;74.32;99386.11;111744;1253;21967;-79
2023/08/30 06:29:02;;;;;;;8.00;7.10;;;;;;;16.90;74.59;99385.92;111310;1258;21986;-79
2023/08/30 06:32:22;;;;;;;8.50;6.30;;;;;;;16.96;74.63;99387.86;111380;1254;22983;-77
2023/08/30 06:34:59;;;;;;;8.60;7.90;;;;;;;17.04;74.51;99388.30;111532;1252;23728;-79
2023/08/30 06:37:52;;;;;;;;;;;;;;;17.05;74.22;99382.09;111586;1249;21964;-79
2023/08/30 06:40:57;;;;;;;;;;;;;;;;;;;;;
2023/08/30 06:43:33;;;;;;;7.10;6.50;;;;;;;16.99;74.25;99385.03;112410;1241;22116;-79
2023/08/30 06:46:19;;;;;;;7.20;6.50;;;;;;;17.03;74.15;99391.73;112151;1243;22011;-79
2023/08/30 06:49:40;;;;;;;6.70;5.60;;;;;;;17.06;73.97;99389.41;112346;1243;21952;-79
2023/08/30 06:52:30;;;;;;;6.60;6.00;;;;;;;17.07;73.94;99385.23;112212;1243;22625;-78
2023/08/30 06:55:17;;;;;;;6.00;5.50;;;;;;;17.12;73.92;99384.14;112449;1243;22023;-78
2023/08/30 06:58:40;;;;;;;7.30;6.70;;;;;;;17.13;73.57;99378.78;111850;1249;22931;-80
2023/08/30 07:01:42;;;;;;;6.80;5.50;;;;;;;17.13;73.57;99382.80;111820;1249;21967;-78
2023/08/30 07:04:57;;;;;;;12.00;6.30;;;;;;;17.15;73.67;99387.23;112056;1239;22405;-78
2023/08/30 07:07:59;;;;;;;10.20;6.40;;;;;;;17.23;73.66;99392.77;113360;1239;21984;-78
2023/08/30 07:11:01;;;;;;;7.30;6.30;;;;;;;17.28;73.70;99394.52;113337;1239;21944;-81
2023/08/30 07:14:01;;;;;;;7.80;6.70;;;;;;;17.35;73.64;99397.96;113280;1239;21955;-81
2023/08/30 07:16:51;;;;;;;6.80;5.80;;;;;;;17.41;73.37;99402.73;113350;1230;21973;-83
2023/08/30 07:20:15;;;;;;;9.40;6.50;;;;;;;17.43;73.11;99407.01;112560;1245;21961;-82
2023/08/30 07:22:53;;;;;;;8.50;7.10;;;;;;;17.49;73.06;99409.67;112776;1240;21963;-80
2023/08/30 07:25:40;;;;;;;8.10;7.30;;;;;;;17.55;72.89;99410.23;112688;1241;23685;-81
2023/08/30 07:28:14;;;;;;;7.90;7.10;;;;;;;17.62;72.83;99407.36;112825;1240;22720;-81
2023/08/30 07:31:16;;;;;;;7.90;7.20;;;;;;;17.69;72.70;99406.40;113160;1241;21957;-82
2023/08/30 07:34:05;;;;;;;8.90;8.20;;;;;;;17.73;72.48;99406.63;112806;1241;21970;-80
2023/08/30 07:37:25;;;;;;;8.80;7.50;;;;;;;17.79;72.63;99409.48;112825;1241;21957;-82
2023/08/30 07:40:17;;;;;;;8.10;7.30;;;;;;;17.89;72.45;99415.58;112882;1241;22492;-81
2023/08/30 07:43:08;;;;;;;7.70;7.00;;;;;;;17.94;71.86;99419.51;112981;1240;21948;-81
2023/08/30 07:45:45;;;;;;;8.00;6.50;;;;;;;18.00;71.79;99425.04;113030;1240;21947;-81
2023/08/30 07:48:23;;;;;;;7.30;6.60;;;;;;;18.02;71.37;99428.25;112766;1240;21950;-84
2023/08/30 07:51:03;;;;;;;7.50;6.40;;;;;;;18.01;71.00;99429.56;113008;1233;21937;-82
2023/08/30 07:59:46;;;;;;;8.80;8.00;;;;;;;17.87;71.17;99429.77;111780;1256;22978;-83
2023/08/30 08:04:49;;;;;;;;;;;;;;;;;;;;;
2023/08/30 08:13:37;;;;;;;;;;;;;;;;;;;;;
2023/08/30 08:28:46;;;;;;;;;;;;;;;;;;;;;
2023/08/30 08:32:05;;;;;;;8.50;7.70;;;;;;;19.03;65.10;99438.30;105072;1259;22450;-81
2023/08/30 08:35:56;;;;;;;9.40;8.50;;;;;;;18.52;66.34;99433.48;111148;1256;22270;-81
2023/08/30 08:40:02;;;;;;;8.20;7.40;;;;;;;18.35;67.51;99444.50;110931;1259;21970;-80
2023/08/30 08:43:43;;;;;;;;;;;;;;;;;;;;;
2023/08/30 08:47:06;;;;;;;;;;;;;;;;;;;;;
2023/08/30 08:59:13;;;;;;;9.90;8.70;;;;;;;18.01;69.04;99437.08;108837;1286;21998;-82
2023/08/30 09:06:48;;;;;;;;;;;;;;;;;;;;;
2023/08/30 09:10:39;;;;;;;10.30;9.50;;;;;;;17.89;69.45;99445.45;109605;1274;21968;-81
2023/08/30 09:19:12;;;;;;;;;;;;;;;;;;;;;
2023/08/30 09:22:50;;;;;;;10.10;9.10;;;;;;;17.68;70.41;99454.34;105919;1288;22759;-81
2023/08/30 09:26:13;;;;;;;11.70;10.50;;;;;;;17.68;70.57;99455.44;109354;1276;22083;-81
2023/08/30 09:29:37;;;;;;;12.20;11.00;;;;;;;17.67;70.73;99451.29;108909;1284;22037;-79
2023/08/30 09:33:04;;;;;;;11.20;10.20;;;;;;;17.70;70.57;99452.61;108365;1283;22073;-81
2023/08/30 09:43:20;;;;;;;;;;;;;;;;;;;;;
2023/08/30 09:47:10;;;;;;;7.80;7.10;;;;;;;17.71;71.27;99459.59;107020;1301;22011;-82
2023/08/30 09:54:41;;;;;;;12.40;8.40;;;;;;;17.96;71.12;99453.50;108229;1297;22144;-83
2023/08/30 09:57:21;;;;;;;;;;;;;;;18.14;71.06;99450.63;107709;1300;22003;-81
2023/08/30 10:00:33;;;;;;;;;;;;;;;;;;;;;
2023/08/30 10:08:14;;;;;;;7.90;7.20;;;;;;;18.56;69.94;99444.47;106774;1310;22838;-83
2023/08/30 10:22:49;;;;;;;;;;;;;;;;;;;;;
2023/08/30 10:26:56;;;;;;;7.80;7.20;;;;;;;19.71;61.94;99442.37;103984;1280;21991;-80
2023/08/30 10:32:04;;;;;;;;;;;;;;;;;;;;;
2023/08/30 10:36:09;;;;;;;;;;;;;;;;;;;;;
2023/08/30 10:40:22;;;;;;;;;;;;;;;;;;;;;
2023/08/30 10:43:14;;;;;;;6.60;6.00;;;;;;;19.09;64.35;99444.98;107389;1300;22025;-86
2023/08/30 10:45:45;;;;;;;6.70;6.20;;;;;;;19.10;64.57;99441.73;107310;1298;22815;-85
2023/08/30 10:48:52;;;;;;;;;;;;;;;;;;;;;
2023/08/30 10:56:43;;;;;;;7.50;6.90;;;;;;;19.27;64.84;99442.58;106213;1312;22045;-84
2023/08/30 11:17:03;;;;;;;;;;;;;;;19.99;59.23;99456.70;105271;1276;21975;-85
2023/08/30 11:21:04;;;;;;;5.20;4.80;;;;;;;19.41;61.12;99456.86;108838;1286;23707;-84
2023/08/30 11:24:09;;;;;;;5.90;5.40;;;;;;;19.27;62.14;99460.38;108863;1283;23731;-87
2023/08/30 11:27:27;;;;;;;7.00;6.10;;;;;;;19.25;62.84;99461.40;108715;1283;22155;-84
2023/08/30 11:30:28;;;;;;;11.60;6.70;;;;;;;19.23;63.31;99464.73;108539;1290;22961;-83
2023/08/30 11:34:00;;;;;;;7.60;6.90;;;;;;;19.13;63.65;99467.89;108361;1286;22976;-81
2023/08/30 11:37:15;;;;;;;8.10;7.30;;;;;;;19.06;63.98;99464.85;107826;1297;22012;-80
2023/08/30 11:40:14;;;;;;;6.50;6.00;;;;;;;18.98;64.39;99456.52;107628;1297;22000;-78
2023/08/30 11:44:08;;;;;;;7.60;7.00;;;;;;;18.99;64.89;99461.25;107697;1297;22080;-80
2023/08/30 11:47:52;;;;;;;;;;;;;;;18.91;65.10;99464.34;107772;1292;23760;-79
2023/08/30 11:50:53;;;;;;;6.70;6.00;;;;;;;18.80;65.40;99457.55;108440;1284;22006;-80
2023/08/30 11:53:47;;;;;;;6.20;5.60;;;;;;;18.78;65.61;99457.52;108767;1284;22052;-79
2023/08/30 11:56:57;;;;;;;6.60;5.90;;;;;;;18.79;65.58;99458.00;108630;1280;22772;-80
2023/08/30 12:00:43;;;;;;;5.20;4.80;;;;;;;18.77;65.57;99456.60;109166;1278;22939;-80
2023/08/30 12:03:50;;;;;;;;;;;;;;;;;;;;;
2023/08/30 12:06:44;;;;;;;5.50;5.00;;;;;;;18.68;65.92;99455.88;109065;1275;23080;-80
2023/08/30 12:10:53;;;;;;;5.20;4.80;;;;;;;18.67;66.20;99455.98;108983;1276;23143;-80
2023/08/30 12:13:51;;;;;;;6.50;5.50;;;;;;;18.65;66.16;99455.97;109433;1268;21993;-80
2023/08/30 12:17:31;;;;;;;;;;;;;;;;;;;;;
2023/08/30 12:21:17;;;;;;;6.50;5.80;;;;;;;18.57;66.87;99446.98;108974;1278;22613;-80
2023/08/30 12:25:39;;;;;;;6.60;6.00;;;;;;;18.63;67.45;99446.28;108215;1293;22005;-78
2023/08/30 12:28:22;;;;;;;9.40;5.20;;;;;;;18.75;67.64;99444.77;107364;1298;21984;-77
2023/08/30 12:30:57;;;;;;;5.60;4.50;;;;;;;18.88;67.67;99442.42;107564;1297;23744;-80
2023/08/30 12:33:47;;;;;;;5.00;4.50;;;;;;;18.97;67.27;99436.17;107638;1300;23090;-77
2023/08/30 12:36:47;;;;;;;5.80;5.30;;;;;;;19.08;67.34;99432.92;107542;1298;22099;-78
2023/08/30 12:39:38;;;;;;;4.80;4.40;;;;;;;19.19;67.08;99440.05;107580;1290;21995;-78
2023/08/30 12:42:17;;;;;;;5.50;5.10;;;;;;;19.27;66.89;99439.87;108226;1290;22052;-79
2023/08/30 12:45:03;;;;;;;4.80;4.40;;;;;;;19.38;66.68;99438.95;108325;1290;22157;-79
2023/08/30 12:47:47;;;;;;;5.40;4.90;;;;;;;19.49;66.72;99441.10;108287;1290;23066;-79
2023/08/30 12:50:47;;;;;;;5.70;5.20;;;;;;;19.52;66.31;99443.89;108452;1290;23778;-78
2023/08/30 12:53:22;;;;;;;;;;;;;;;19.52;65.69;99444.40;108260;1287;22943;-80
2023/08/30 12:56:29;;;;;;;5.00;4.60;;;;;;;19.40;65.67;99443.66;108819;1276;22056;-77
2023/08/30 12:59:31;;;;;;;6.50;5.00;;;;;;;19.28;65.64;99441.74;109194;1269;21935;-79
2023/08/30 13:02:23;;;;;;;6.10;5.60;;;;;;;19.26;65.74;99437.53;109813;1268;21979;-77
2023/08/30 13:05:21;;;;;;;6.60;6.00;;;;;;;19.20;65.86;99429.95;110054;1260;22013;-77
2023/08/30 13:08:20;;;;;;;6.90;6.10;;;;;;;19.24;66.09;99430.80;110863;1260;21986;-78
2023/08/30 13:11:01;;;;;;;7.50;7.00;;;;;;;19.34;66.46;99430.99;110621;1260;23597;-78
2023/08/30 13:13:57;;;;;;;7.20;6.60;;;;;;;19.45;66.36;99438.10;110784;1260;23071;-78
2023/08/30 13:17:17;;;;;;;8.30;7.60;;;;;;;19.45;65.78;99438.85;110688;1263;21986;-78
2023/08/30 13:20:13;;;;;;;6.90;6.10;;;;;;;19.44;65.58;99443.64;110676;1263;21960;-78
2023/08/30 13:23:55;;;;;;;7.50;6.90;;;;;;;19.34;65.18;99446.32;110637;1263;21984;-78
2023/08/30 13:27:34;;;;;;;7.00;6.50;;;;;;;19.17;65.26;99445.52;109992;1268;22008;-78
2023/08/30 13:30:36;;;;;;;7.20;6.50;;;;;;;19.10;65.33;99447.91;109366;1273;21974;-79
2023/08/30 13:33:48;;;;;;;7.90;7.20;;;;;;;19.00;65.44;99447.75;108830;1276;21983;-78
2023/08/30 13:36:46;;;;;;;7.90;6.70;;;;;;;18.93;65.73;99452.23;109023;1276;22723;-79
2023/08/30 13:39:32;;;;;;;6.40;5.90;;;;;;;18.92;65.85;99447.20;108711;1282;23719;-76
2023/08/30 13:42:21;;;;;;;6.90;6.40;;;;;;;18.93;65.97;99443.39;108640;1282;24324;-78
2023/08/30 13:45:39;;;;;;;;;;;;;;;;;;;;;
2023/08/30 13:48:50;;;;;;;5.60;5.10;;;;;;;19.10;65.34;99452.66;108427;1282;22021;-79
2023/08/30 13:51:40;;;;;;;6.50;5.90;;;;;;;19.11;65.07;99454.85;108715;1280;22028;-82
2023/08/30 13:54:28;;;;;;;8.50;5.80;;;;;;;19.13;65.03;99455.63;108809;1279;22003;-78
2023/08/30 13:57:02;;;;;;;6.70;6.20;;;;;;;19.16;64.82;99456.38;108772;1272;22469;-80
2023/08/30 14:00:24;;;;;;;6.10;5.60;;;;;;;19.21;64.88;99457.52;109514;1272;23027;-83
2023/08/30 14:03:40;;;;;;;6.30;5.80;;;;;;;19.22;64.74;99456.94;109466;1273;23055;-78
2023/08/30 14:07:03;;;;;;;6.10;5.60;;;;;;;19.26;64.63;99460.40;109277;1276;21984;-78
2023/08/30 14:10:18;;;;;;;5.80;5.20;;;;;;;19.25;64.05;99466.48;109216;1276;21999;-79
2023/08/30 14:17:15;;;;;;;6.30;5.50;;;;;;;19.06;63.71;99468.66;108766;1279;22451;-79
2023/08/30 14:20:41;;;;;;;5.80;5.30;;;;;;;18.93;63.97;99464.91;108541;1286;22030;-78
2023/08/30 14:24:38;;;;;;;8.70;6.60;;;;;;;18.87;64.42;99467.39;108437;1283;22014;-78
2023/08/30 14:27:44;;;;;;;8.50;7.80;;;;;;;18.77;64.84;99467.65;109019;1283;22021;-79
2023/08/30 14:30:39;;;;;;;8.30;7.60;;;;;;;18.75;65.14;99463.27;108656;1286;22047;-78
2023/08/30 14:34:32;;;;;;;6.90;6.30;;;;;;;18.71;65.23;99463.02;108654;1286;23603;-79
2023/08/30 14:52:56;;;;;;;;;;;;;;;;;;;;;
2023/08/30 15:01:25;;;;;;;6.60;6.10;;;;;;;18.49;66.27;99465.45;111206;1258;22303;-78
2023/08/30 15:11:32;;;;;;;;;;;;;;;;;;;;;
2023/08/30 15:15:33;;;;;;;7.50;6.90;;;;;;;18.29;65.89;99472.91;108751;1283;22014;-80
2023/08/30 15:24:45;;;;;;;;;;;;;;;;;;;;;
2023/08/30 15:28:22;;;;;;;7.00;4.10;;;;;;;18.00;66.63;99459.19;108524;1287;22756;-78
2023/08/30 15:32:14;;;;;;;5.70;5.20;;;;;;;17.96;66.54;99462.30;108487;1287;22102;-79
2023/08/30 15:35:37;;;;;;;4.40;4.00;;;;;;;17.92;66.42;99463.13;108477;1287;22016;-77
2023/08/30 15:50:19;;;;;;;35.90;32.90;;;;;;;19.33;62.12;99475.20;108754;1277;548209;-77
2023/08/30 15:53:44;;;;;;;9.80;4.10;;;;;;;19.41;61.39;99483.77;105002;1280;5454538;-80
2023/08/30 15:56:45;;;;;;;10.40;5.20;;;;;;;19.17;62.05;99486.80;108538;1291;21989;-79
2023/08/30 16:00:30;;;;;;;;;;;;;;;;;;;;;
2023/08/30 16:12:44;;;;;;;6.10;5.40;;;;;;;18.33;64.47;99504.67;108588;1292;22007;-81
2023/08/30 16:16:45;;;;;;;;;;;;;;;;;;;;;
2023/08/30 16:20:16;;;;;;;4.90;2.70;;;;;;;18.22;65.15;99504.73;108693;1290;23729;-78
2023/08/30 16:24:15;;;;;;;;;;;;;;;;;;;;;
2023/08/30 16:28:49;;;;;;;;;;;;;;;;;;;;;
2023/08/30 16:33:46;;;;;;;3.10;2.50;;;;;;;18.11;65.65;99515.34;109944;1273;21984;-80
2023/08/30 16:37:31;;;;;;;4.50;2.00;;;;;;;18.03;65.67;99518.63;109539;1277;24306;-78
2023/08/30 16:46:33;;;;;;;;;;;;;;;;;;;;;
2023/08/30 16:50:06;;;;;;;3.70;2.70;;;;;;;17.67;66.55;99509.88;109379;1279;22475;-81
2023/08/30 16:53:23;;;;;;;3.40;2.90;;;;;;;17.64;66.75;99513.42;109186;1278;23435;-81
2023/08/30 16:56:15;;;;;;;4.80;2.80;;;;;;;17.73;67.06;99522.04;109269;1278;22001;-80
2023/08/30 16:59:14;;;;;;;4.50;2.60;;;;;;;17.75;67.16;99514.55;108529;1288;21994;-80
2023/08/30 17:01:50;;;;;;;3.60;3.10;;;;;;;17.78;67.05;99513.20;109053;1285;22042;-82
2023/08/30 17:04:51;;;;;;;2.90;2.60;;;;;;;17.77;67.11;99516.48;108812;1288;22016;-80
2023/08/30 17:07:52;;;;;;;4.10;3.70;;;;;;;17.75;67.21;99523.30;108926;1285;23757;-82
2023/08/30 17:10:43;;;;;;;4.00;3.50;;;;;;;17.71;67.15;99527.85;109080;1283;23131;-80
2023/08/30 17:13:36;;;;;;;3.70;3.40;;;;;;;17.68;67.14;99527.42;108826;1277;23741;-80
2023/08/30 17:17:04;;;;;;;3.60;3.30;;;;;;;17.61;67.36;99521.08;109283;1276;22006;-80
2023/08/30 17:20:04;;;;;;;4.20;2.60;;;;;;;17.59;67.59;99521.25;109597;1270;22975;-80
2023/08/30 17:22:55;;;;;;;5.40;3.60;;;;;;;17.60;67.80;99526.48;109797;1270;22018;-81
2023/08/30 17:25:59;;;;;;;4.40;3.90;;;;;;;17.64;67.73;99528.10;109603;1270;22037;-79
2023/08/30 17:28:53;;;;;;;4.20;3.40;;;;;;;17.59;67.85;99529.89;109882;1265;21973;-81
2023/08/30 17:31:37;;;;;;;4.60;3.80;;;;;;;17.56;67.92;99529.55;110442;1268;22007;-79
2023/08/30 17:34:24;;;;;;;4.60;4.20;;;;;;;17.53;67.89;99531.36;109309;1273;21931;-79
2023/08/30 17:37:03;;;;;;;7.00;4.20;;;;;;;17.50;67.89;99532.88;109041;1273;21980;-80
2023/08/30 17:39:40;;;;;;;6.50;4.30;;;;;;;17.47;68.04;99531.52;109396;1271;21993;-79
2023/08/30 17:42:11;;;;;;;5.30;3.70;;;;;;;17.42;68.04;99530.82;109254;1276;21984;-81
2023/08/30 17:45:00;;;;;;;6.10;5.50;;;;;;;17.38;68.16;99531.35;109201;1270;23055;-79
2023/08/30 17:47:51;;;;;;;6.10;5.60;;;;;;;17.35;68.34;99532.77;109576;1276;24389;-80
2023/08/30 17:50:31;;;;;;;7.00;6.20;;;;;;;17.32;68.46;99530.22;109461;1274;21992;-78
2023/08/30 17:53:10;;;;;;;6.50;5.90;;;;;;;17.34;68.46;99534.29;109561;1267;21977;-78
2023/08/30 17:55:40;;;;;;;6.40;5.90;;;;;;;17.31;68.62;99533.64;110160;1266;22074;-79